Time;durP1;ratioP1;P1;durP2;ratioP2;P2;SDS_P1;SDS_P2;PMS_P1;PMS_P2;Temp;Humidity;BMP_temperature;BMP_pressure;BME280_temperature;BME280_humidity;BME280_pressure;Samples;Min_cycle;Max_cycle;Signal;HPM_P1;HPM_P2
2023/10/11 00:01:18;;;;;;;9.53;4.63;;;;;;;;;;6233950;22;20515;-92
2023/10/11 00:03:53;;;;;;;5.23;3.50;;;;;;;;;;6233873;22;20391;-91
2023/10/11 00:06:19;;;;;;;6.70;4.00;;;;;;;;;;6235385;22;20372;-92
2023/10/11 00:08:45;;;;;;;4.53;3.70;;;;;;;;;;6233769;22;20596;-91
2023/10/11 00:11:23;;;;;;;8.33;3.50;;;;;;;;;;6231369;22;20837;-92
2023/10/11 00:13:49;;;;;;;5.00;3.87;;;;;;;;;;6241924;22;20416;-93
2023/10/11 00:16:17;;;;;;;6.70;3.60;;;;;;;;;;6245424;22;20381;-92
2023/10/11 00:18:43;;;;;;;8.57;3.77;;;;;;;;;;6246680;22;20361;-92
2023/10/11 00:21:10;;;;;;;4.73;3.00;;;;;;;;;;6247516;22;20393;-92
2023/10/11 00:23:38;;;;;;;5.97;3.80;;;;;;;;;;6247628;22;20361;-92
2023/10/11 00:26:06;;;;;;;8.17;4.30;;;;;;;;;;6295957;22;20397;-93
2023/10/11 00:28:32;;;;;;;8.63;4.40;;;;;;;;;;6248413;22;20404;-93
2023/10/11 00:31:00;;;;;;;6.73;3.30;;;;;;;;;;6245394;22;20379;-93
2023/10/11 00:33:29;;;;;;;6.10;3.97;;;;;;;;;;6245386;22;20447;-92
2023/10/11 00:35:55;;;;;;;6.13;4.40;;;;;;;;;;6244831;22;20394;-93
2023/10/11 00:38:27;;;;;;;11.10;4.90;;;;;;;;;;6247108;22;20381;-94
2023/10/11 00:41:12;;;;;;;6.60;3.77;;;;;;;;;;6247423;22;20417;-94
2023/10/11 00:43:47;;;;;;;6.27;3.90;;;;;;;;;;6179301;22;20449;-91
2023/10/11 00:46:14;;;;;;;10.50;4.27;;;;;;;;;;6238738;22;20387;-93
2023/10/11 00:51:30;;;;;;;9.70;4.13;;;;;;;;;;6267810;22;20880;-94
2023/10/11 00:53:56;;;;;;;10.30;4.40;;;;;;;;;;6239026;22;20376;-94
2023/10/11 00:56:23;;;;;;;5.77;3.63;;;;;;;;;;6237931;22;20413;-93
2023/10/11 00:58:52;;;;;;;6.33;3.87;;;;;;;;;;6243937;22;20381;-95
2023/10/11 01:01:20;;;;;;;7.57;3.73;;;;;;;;;;6263964;22;20380;-93
2023/10/11 01:04:00;;;;;;;7.00;3.87;;;;;;;;;;6219805;22;20377;-93
2023/10/11 01:06:28;;;;;;;9.70;4.10;;;;;;;;;;6235874;22;20439;-92
2023/10/11 01:08:54;;;;;;;5.97;3.40;;;;;;;;;;6238739;22;20381;-92
2023/10/11 01:11:21;;;;;;;7.57;3.90;;;;;;;;;;6236434;22;20382;-93
2023/10/11 01:13:53;;;;;;;3.57;2.67;;;;;;;;;;6239087;22;20393;-93
2023/10/11 01:16:29;;;;;;;6.23;4.00;;;;;;;;;;6237964;22;20378;-93
2023/10/11 01:18:55;;;;;;;8.37;4.30;;;;;;;;;;6239614;22;20765;-93
2023/10/11 01:21:21;;;;;;;8.47;4.03;;;;;;;;;;6234572;22;20372;-94
2023/10/11 01:23:48;;;;;;;7.37;3.90;;;;;;;;;;6235443;22;20366;-95
2023/10/11 01:26:15;;;;;;;9.10;4.23;;;;;;;;;;6236043;22;20415;-92
2023/10/11 01:28:42;;;;;;;4.93;3.67;;;;;;;;;;6237494;22;20357;-94
2023/10/11 01:31:08;;;;;;;8.17;3.83;;;;;;;;;;6233973;22;20383;-93
2023/10/11 01:33:41;;;;;;;6.07;3.07;;;;;;;;;;6242079;22;20381;-93
2023/10/11 01:36:08;;;;;;;6.53;5.20;;;;;;;;;;6233432;22;20391;-93
2023/10/11 01:38:46;;;;;;;10.27;5.57;;;;;;;;;;6235137;22;20412;-93
2023/10/11 01:41:22;;;;;;;4.90;4.07;;;;;;;;;;6260188;22;20426;-94
2023/10/11 01:43:49;;;;;;;7.33;4.50;;;;;;;;;;6261479;22;20393;-91
2023/10/11 01:46:24;;;;;;;5.40;3.40;;;;;;;;;;6235848;22;20373;-91
2023/10/11 01:48:50;;;;;;;7.93;3.23;;;;;;;;;;6241641;22;20384;-93
2023/10/11 01:51:23;;;;;;;6.27;3.40;;;;;;;;;;6240056;22;20389;-92
2023/10/11 01:53:49;;;;;;;6.17;3.40;;;;;;;;;;6241208;22;20479;-92
2023/10/11 01:56:15;;;;;;;6.77;4.00;;;;;;;;;;6238306;22;20811;-93
2023/10/11 01:58:42;;;;;;;5.87;3.67;;;;;;;;;;6239015;22;20480;-93
2023/10/11 02:01:21;;;;;;;8.73;3.77;;;;;;;;;;6239392;22;20384;-95
2023/10/11 02:03:52;;;;;;;7.43;3.67;;;;;;;;;;6239322;22;20400;-93
2023/10/11 02:06:18;;;;;;;10.30;4.20;;;;;;;;;;6234759;22;20404;-92
2023/10/11 02:08:44;;;;;;;4.90;3.43;;;;;;;;;;6238808;22;20412;-93
2023/10/11 02:11:10;;;;;;;5.20;3.43;;;;;;;;;;6239160;22;20415;-92
2023/10/11 02:13:39;;;;;;;4.77;4.13;;;;;;;;;;6242582;22;20389;-92
2023/10/11 02:16:10;;;;;;;6.60;3.63;;;;;;;;;;6239933;22;20412;-93
2023/10/11 02:18:36;;;;;;;6.13;3.80;;;;;;;;;;6237470;22;20411;-93
2023/10/11 02:21:06;;;;;;;7.23;3.93;;;;;;;;;;6237715;22;20397;-92
2023/10/11 02:23:39;;;;;;;7.03;3.60;;;;;;;;;;6237294;22;20384;-92
2023/10/11 02:26:09;;;;;;;8.30;3.83;;;;;;;;;;6237473;22;20350;-92
2023/10/11 02:28:38;;;;;;;7.03;4.53;;;;;;;;;;6239850;22;20420;-92
2023/10/11 02:31:05;;;;;;;6.23;3.40;;;;;;;;;;6235553;22;20404;-92
2023/10/11 02:33:33;;;;;;;6.03;3.90;;;;;;;;;;6237720;22;20374;-90
2023/10/11 02:36:09;;;;;;;10.87;4.70;;;;;;;;;;6261627;22;20378;-93
2023/10/11 02:38:57;;;;;;;5.67;3.17;;;;;;;;;;6239623;22;20427;-92
2023/10/11 02:41:26;;;;;;;9.93;4.60;;;;;;;;;;6239800;22;20357;-92
2023/10/11 02:43:57;;;;;;;7.53;4.10;;;;;;;;;;6241404;22;20400;-92
2023/10/11 02:46:23;;;;;;;8.63;4.50;;;;;;;;;;6234283;22;20427;-92
2023/10/11 02:48:54;;;;;;;6.63;3.93;;;;;;;;;;6235320;22;20385;-92
2023/10/11 02:51:24;;;;;;;4.00;3.40;;;;;;;;;;6236901;22;20447;-91
2023/10/11 02:53:52;;;;;;;8.07;4.40;;;;;;;;;;6236129;22;20381;-92
2023/10/11 02:56:18;;;;;;;9.63;3.80;;;;;;;;;;6237423;22;20420;-93
2023/10/11 02:58:44;;;;;;;4.37;3.03;;;;;;;;;;6237629;22;20381;-92
2023/10/11 03:01:20;;;;;;;7.57;3.40;;;;;;;;;;6235193;22;20439;-92
2023/10/11 03:03:47;;;;;;;6.87;3.97;;;;;;;;;;6239383;22;20407;-92
2023/10/11 03:06:13;;;;;;;5.73;3.40;;;;;;;;;;6233977;22;20402;-91
2023/10/11 03:08:43;;;;;;;7.80;3.53;;;;;;;;;;6235061;22;20756;-91
2023/10/11 03:11:15;;;;;;;7.50;4.10;;;;;;;;;;6235668;22;20383;-92
2023/10/11 03:13:43;;;;;;;8.73;3.40;;;;;;;;;;6240132;22;20381;-93
2023/10/11 03:16:17;;;;;;;4.77;3.53;;;;;;;;;;6260333;22;20385;-92
2023/10/11 03:18:46;;;;;;;7.20;4.23;;;;;;;;;;6237015;22;20365;-93
2023/10/11 03:21:19;;;;;;;7.70;3.77;;;;;;;;;;6236422;22;20378;-92
2023/10/11 03:23:54;;;;;;;29.00;16.20;;;;;;;;;;6238691;22;20365;-91
2023/10/11 03:26:22;;;;;;;30.07;13.07;;;;;;;;;;6238756;22;20384;-91
2023/10/11 03:28:58;;;;;;;18.47;8.43;;;;;;;;;;6239232;22;20373;-93
2023/10/11 03:31:29;;;;;;;21.20;9.00;;;;;;;;;;6201958;23;20377;-91
2023/10/11 03:33:59;;;;;;;17.47;9.50;;;;;;;;;;6176146;23;20363;-92
2023/10/11 03:36:35;;;;;;;52.30;26.40;;;;;;;;;;6175665;23;20407;-92
2023/10/11 03:39:09;;;;;;;27.43;15.17;;;;;;;;;;6178399;23;20375;-92
2023/10/11 03:41:36;;;;;;;19.70;9.97;;;;;;;;;;6175365;23;20468;-93
2023/10/11 03:44:11;;;;;;;19.13;10.40;;;;;;;;;;6177089;23;20391;-92
2023/10/11 03:46:38;;;;;;;25.20;12.53;;;;;;;;;;6178207;23;20433;-92
2023/10/11 03:51:50;;;;;;;18.37;11.07;;;;;;;;;;6203281;23;20463;-93
2023/10/11 03:54:22;;;;;;;14.57;5.90;;;;;;;;;;6178862;23;20387;-92
2023/10/11 03:56:52;;;;;;;11.67;7.50;;;;;;;;;;6175126;23;20433;-91
2023/10/11 03:59:19;;;;;;;13.40;5.30;;;;;;;;;;6175553;23;20454;-93
2023/10/11 04:01:45;;;;;;;9.47;5.13;;;;;;;;;;6186971;22;20433;-91
2023/10/11 04:04:11;;;;;;;9.00;3.90;;;;;;;;;;6238303;22;20382;-93
2023/10/11 04:06:37;;;;;;;7.93;3.93;;;;;;;;;;6235106;22;20432;-93
2023/10/11 04:09:03;;;;;;;5.93;4.27;;;;;;;;;;6239907;22;20401;-93
2023/10/11 04:11:53;;;;;;;7.40;4.73;;;;;;;;;;6236723;22;20389;-93
2023/10/11 04:14:24;;;;;;;7.33;3.97;;;;;;;;;;6246995;22;20408;-92
2023/10/11 04:16:53;;;;;;;17.43;4.40;;;;;;;;;;6263128;22;20350;-91
2023/10/11 04:19:38;;;;;;;10.60;4.10;;;;;;;;;;6241124;22;20377;-92
2023/10/11 04:22:12;;;;;;;5.70;3.70;;;;;;;;;;6272844;22;20548;-93
2023/10/11 04:24:39;;;;;;;9.53;3.70;;;;;;;;;;6269635;22;20357;-93
2023/10/11 04:29:47;;;;;;;10.60;4.23;;;;;;;;;;6268965;22;20392;-92
2023/10/11 04:32:40;;;;;;;7.43;3.43;;;;;;;;;;6199669;23;20404;-94
2023/10/11 04:35:02;;;;;;;6.67;4.00;;;;;;;;;;6207179;23;20379;-93
2023/10/11 04:37:30;;;;;;;8.90;4.67;;;;;;;;;;6172174;23;20750;-93
2023/10/11 04:39:59;;;;;;;7.07;3.27;;;;;;;;;;6175155;23;20511;-94
2023/10/11 04:42:29;;;;;;;6.23;3.77;;;;;;;;;;6175636;23;20395;-95
2023/10/11 04:44:56;;;;;;;6.67;4.40;;;;;;;;;;6178763;23;20413;-94
2023/10/11 04:47:23;;;;;;;9.23;4.60;;;;;;;;;;6175724;23;20423;-92
2023/10/11 04:49:52;;;;;;;4.80;3.00;;;;;;;;;;6175576;23;20403;-93
2023/10/11 04:52:22;;;;;;;4.50;3.40;;;;;;;;;;6175425;23;20448;-93
2023/10/11 04:54:55;;;;;;;5.20;3.80;;;;;;;;;;6180243;23;20466;-92
2023/10/11 04:57:40;;;;;;;6.87;4.03;;;;;;;;;;6129606;23;20400;-92
2023/10/11 05:00:10;;;;;;;5.77;3.60;;;;;;;;;;6180721;23;20387;-93
2023/10/11 05:02:38;;;;;;;6.93;4.03;;;;;;;;;;6195029;22;20381;-93
2023/10/11 05:05:10;;;;;;;6.90;3.57;;;;;;;;;;6236338;22;20380;-93
2023/10/11 05:07:42;;;;;;;6.50;4.03;;;;;;;;;;6240978;22;20427;-94
2023/10/11 05:10:29;;;;;;;5.30;3.60;;;;;;;;;;6237132;22;20421;-94
2023/10/11 05:13:05;;;;;;;7.83;3.60;;;;;;;;;;6200789;23;20391;-95
2023/10/11 05:15:42;;;;;;;7.90;3.77;;;;;;;;;;6175688;23;20363;-94
2023/10/11 05:18:08;;;;;;;5.13;3.00;;;;;;;;;;6177489;23;20432;-95
2023/10/11 05:23:11;;;;;;;9.80;4.30;;;;;;;;;;6201831;23;20397;-95
2023/10/11 05:25:39;;;;;;;6.57;3.87;;;;;;;;;;6175458;23;20374;-93
2023/10/11 05:31:01;;;;;;;10.90;4.13;;;;;;;;;;6200712;23;20363;-91
2023/10/11 05:36:14;;;;;;;12.40;5.50;;;;;;;;;;6206485;23;20367;-90
2023/10/11 05:52:25;;;;;;;7.90;4.47;;;;;;;;;;6264816;22;20364;-88
2023/10/11 05:54:53;;;;;;;10.77;5.00;;;;;;;;;;6238622;22;20368;-88
2023/10/11 05:57:19;;;;;;;10.40;4.33;;;;;;;;;;6234048;22;20392;-90
2023/10/11 05:59:48;;;;;;;8.23;4.57;;;;;;;;;;6240781;22;20440;-90
2023/10/11 06:02:14;;;;;;;10.57;4.47;;;;;;;;;;6235480;22;20387;-89
2023/10/11 06:04:40;;;;;;;8.43;4.53;;;;;;;;;;6234241;22;20386;-89
2023/10/11 06:07:06;;;;;;;7.70;5.20;;;;;;;;;;6232294;22;20415;-89
2023/10/11 06:09:39;;;;;;;13.23;4.70;;;;;;;;;;6239174;22;20472;-90
2023/10/11 06:12:09;;;;;;;8.77;4.23;;;;;;;;;;6227955;23;20431;-88
2023/10/11 06:14:36;;;;;;;13.33;4.20;;;;;;;;;;6231928;23;20386;-89
2023/10/11 06:17:05;;;;;;;9.93;5.03;;;;;;;;;;6225746;23;20383;-89
2023/10/11 06:19:31;;;;;;;6.60;3.17;;;;;;;;;;6234633;23;20362;-89
2023/10/11 06:21:58;;;;;;;12.80;6.13;;;;;;;;;;6228626;23;20409;-89
2023/10/11 06:24:24;;;;;;;11.40;4.27;;;;;;;;;;6229139;23;20434;-89
2023/10/11 06:26:53;;;;;;;9.27;4.00;;;;;;;;;;6225422;23;20475;-89
2023/10/11 06:29:29;;;;;;;8.60;4.23;;;;;;;;;;6226026;23;20389;-89
2023/10/11 06:31:55;;;;;;;7.27;3.90;;;;;;;;;;6226165;23;20382;-90
2023/10/11 06:36:51;;;;;;;7.17;4.07;;;;;;;;;;6256466;22;20417;-89
2023/10/11 06:39:34;;;;;;;9.40;4.30;;;;;;;;;;6235532;22;20377;-89
2023/10/11 06:42:12;;;;;;;7.70;3.53;;;;;;;;;;6232001;22;20767;-90
2023/10/11 06:44:39;;;;;;;7.83;3.73;;;;;;;;;;6261540;22;20396;-90
2023/10/11 06:47:06;;;;;;;7.83;4.50;;;;;;;;;;6234602;22;20913;-90
2023/10/11 06:49:44;;;;;;;9.27;4.03;;;;;;;;;;6200552;23;20403;-89
2023/10/11 06:52:15;;;;;;;5.83;3.53;;;;;;;;;;6174709;23;20381;-89
2023/10/11 06:55:07;;;;;;;8.17;4.33;;;;;;;;;;6173806;23;20383;-90
2023/10/11 06:57:38;;;;;;;6.47;3.47;;;;;;;;;;6173125;23;20386;-91
2023/10/11 07:00:12;;;;;;;8.87;3.63;;;;;;;;;;6172100;23;20379;-91
2023/10/11 07:02:38;;;;;;;10.77;4.60;;;;;;;;;;6170516;23;20925;-91
2023/10/11 07:05:08;;;;;;;11.27;3.47;;;;;;;;;;6175267;23;20489;-91
2023/10/11 07:07:34;;;;;;;5.80;3.47;;;;;;;;;;6169915;23;20431;-90
2023/10/11 07:10:04;;;;;;;9.03;3.83;;;;;;;;;;6170715;23;20403;-90
2023/10/11 07:12:39;;;;;;;4.30;2.47;;;;;;;;;;6171593;23;20383;-89
2023/10/11 07:15:07;;;;;;;13.37;4.13;;;;;;;;;;6173052;23;20997;-90
2023/10/11 07:17:33;;;;;;;4.90;3.30;;;;;;;;;;6170453;23;20383;-90
2023/10/11 07:20:00;;;;;;;8.03;3.83;;;;;;;;;;6192789;22;20516;-91
2023/10/11 07:22:26;;;;;;;8.23;3.33;;;;;;;;;;6233310;22;20445;-89
2023/10/11 07:25:18;;;;;;;5.20;2.83;;;;;;;;;;6236485;22;20380;-91
2023/10/11 07:27:44;;;;;;;4.43;3.10;;;;;;;;;;6238623;22;20485;-90
2023/10/11 07:30:16;;;;;;;7.80;3.83;;;;;;;;;;6237532;22;20369;-90
2023/10/11 07:32:46;;;;;;;6.47;2.90;;;;;;;;;;6236246;22;20463;-91
2023/10/11 07:35:27;;;;;;;6.93;3.10;;;;;;;;;;6238919;22;20405;-90
2023/10/11 07:37:53;;;;;;;11.93;2.80;;;;;;;;;;6237219;22;20373;-91
2023/10/11 07:40:33;;;;;;;5.90;3.00;;;;;;;;;;6237256;22;20382;-91
2023/10/11 07:42:59;;;;;;;5.90;3.30;;;;;;;;;;6237004;22;20439;-90
2023/10/11 07:45:26;;;;;;;6.70;3.40;;;;;;;;;;6234299;22;20373;-91
2023/10/11 07:47:52;;;;;;;9.33;4.10;;;;;;;;;;6232867;22;20755;-91
2023/10/11 07:50:22;;;;;;;6.80;3.37;;;;;;;;;;6263311;22;20439;-91
2023/10/11 07:52:48;;;;;;;6.10;2.87;;;;;;;;;;6233806;22;20377;-90
2023/10/11 07:55:15;;;;;;;9.07;3.53;;;;;;;;;;6240198;22;20377;-91
2023/10/11 07:57:44;;;;;;;5.47;3.13;;;;;;;;;;6233002;22;20381;-91
2023/10/11 08:00:18;;;;;;;5.80;3.30;;;;;;;;;;6234836;22;20372;-90
2023/10/11 08:02:55;;;;;;;8.20;3.70;;;;;;;;;;6233677;22;20369;-91
2023/10/11 08:05:21;;;;;;;7.03;2.10;;;;;;;;;;6234849;22;20349;-90
2023/10/11 08:07:47;;;;;;;7.90;3.33;;;;;;;;;;6234050;22;20466;-90
2023/10/11 08:10:29;;;;;;;7.53;2.97;;;;;;;;;;6266983;22;20613;-91
2023/10/11 08:12:57;;;;;;;4.93;2.73;;;;;;;;;;6236393;22;20366;-92
2023/10/11 08:15:25;;;;;;;8.03;3.73;;;;;;;;;;6229313;22;20381;-91
2023/10/11 08:17:51;;;;;;;9.00;3.90;;;;;;;;;;6233908;22;20377;-91
2023/10/11 08:20:17;;;;;;;8.43;2.97;;;;;;;;;;6234607;22;20381;-91
2023/10/11 08:22:47;;;;;;;7.10;4.03;;;;;;;;;;6257901;22;20369;-91
2023/10/11 08:25:13;;;;;;;9.47;3.63;;;;;;;;;;6232712;22;20449;-91
2023/10/11 08:27:41;;;;;;;6.30;3.60;;;;;;;;;;6258321;22;20417;-93
2023/10/11 08:30:21;;;;;;;6.60;3.77;;;;;;;;;;6239978;22;20471;-92
2023/10/11 08:32:47;;;;;;;7.30;2.63;;;;;;;;;;6219764;23;20367;-91
2023/10/11 08:35:23;;;;;;;6.53;3.40;;;;;;;;;;6173149;23;20389;-92
2023/10/11 08:37:52;;;;;;;6.67;3.00;;;;;;;;;;6174107;23;20404;-91
2023/10/11 08:40:29;;;;;;;6.80;3.67;;;;;;;;;;6203832;23;20347;-91
2023/10/11 08:43:00;;;;;;;10.27;3.70;;;;;;;;;;6182589;23;20863;-92
2023/10/11 08:45:33;;;;;;;11.07;4.07;;;;;;;;;;6108241;23;20868;-92
2023/10/11 08:48:00;;;;;;;9.17;4.40;;;;;;;;;;6111718;23;20433;-93
2023/10/11 08:50:34;;;;;;;7.00;3.20;;;;;;;;;;6110080;23;20985;-90
2023/10/11 08:53:02;;;;;;;8.47;2.93;;;;;;;;;;6104722;23;20941;-93
2023/10/11 08:55:28;;;;;;;9.27;3.70;;;;;;;;;;6108196;23;20964;-93
2023/10/11 08:57:54;;;;;;;10.63;3.80;;;;;;;;;;6112368;23;20398;-92
2023/10/11 09:00:31;;;;;;;8.23;4.43;;;;;;;;;;6107959;23;20424;-92
2023/10/11 09:02:58;;;;;;;7.93;3.20;;;;;;;;;;6151325;23;20380;-93
2023/10/11 09:05:42;;;;;;;6.80;3.87;;;;;;;;;;6167627;23;21129;-92
2023/10/11 09:08:13;;;;;;;6.90;3.43;;;;;;;;;;6168704;23;20431;-91
2023/10/11 09:10:40;;;;;;;6.40;4.77;;;;;;;;;;6169534;23;20403;-91
2023/10/11 09:13:09;;;;;;;9.43;2.90;;;;;;;;;;6167511;23;20916;-92
2023/10/11 09:15:40;;;;;;;9.63;3.70;;;;;;;;;;6193134;22;20393;-90
2023/10/11 09:18:17;;;;;;;8.43;3.80;;;;;;;;;;6236000;22;20377;-91
2023/10/11 09:20:49;;;;;;;6.00;3.20;;;;;;;;;;6203863;23;20397;-91
2023/10/11 09:23:21;;;;;;;6.17;3.30;;;;;;;;;;6174418;23;20383;-91
2023/10/11 09:26:00;;;;;;;5.77;3.70;;;;;;;;;;6154703;23;20978;-92
2023/10/11 09:28:26;;;;;;;7.40;3.37;;;;;;;;;;6179708;23;20419;-91
2023/10/11 09:31:15;;;;;;;10.13;3.93;;;;;;;;;;6113070;23;20397;-91
2023/10/11 09:34:07;;;;;;;7.03;3.70;;;;;;;;;;6112206;23;20385;-92
2023/10/11 09:36:31;;;;;;;12.10;3.50;;;;;;;;;;6113997;23;20441;-91
2023/10/11 09:38:59;;;;;;;6.27;3.40;;;;;;;;;;6114343;23;20880;-92
2023/10/11 09:41:25;;;;;;;7.63;3.70;;;;;;;;;;6086782;23;20381;-92
2023/10/11 09:44:01;;;;;;;8.13;3.73;;;;;;;;;;6090995;23;20386;-91
2023/10/11 09:46:30;;;;;;;7.60;3.83;;;;;;;;;;6039005;23;20405;-91
2023/10/11 09:49:12;;;;;;;6.43;3.53;;;;;;;;;;6089589;23;20386;-91
2023/10/11 09:51:41;;;;;;;13.13;4.20;;;;;;;;;;6122610;23;20388;-91
2023/10/11 09:54:09;;;;;;;7.13;4.17;;;;;;;;;;6149325;23;20431;-91
2023/10/11 09:56:56;;;;;;;7.60;3.50;;;;;;;;;;6146541;23;20372;-92
2023/10/11 09:59:41;;;;;;;9.03;4.03;;;;;;;;;;6175918;23;20721;-92
2023/10/11 10:02:12;;;;;;;8.67;4.07;;;;;;;;;;6135163;23;20689;-92
2023/10/11 10:04:50;;;;;;;12.90;3.73;;;;;;;;;;6088466;23;20386;-92
2023/10/11 10:07:42;;;;;;;6.70;4.30;;;;;;;;;;6117638;23;20428;-92
2023/10/11 10:10:10;;;;;;;7.70;4.17;;;;;;;;;;6182806;23;20919;-91
2023/10/11 10:12:55;;;;;;;10.97;4.70;;;;;;;;;;6201733;23;20382;-91
2023/10/11 10:15:23;;;;;;;5.80;4.50;;;;;;;;;;6198988;23;20367;-91
2023/10/11 10:18:00;;;;;;;11.63;3.80;;;;;;;;;;6181780;23;20430;-92
2023/10/11 10:20:41;;;;;;;9.53;5.27;;;;;;;;;;6198341;23;20418;-93
2023/10/11 10:23:16;;;;;;;9.23;3.80;;;;;;;;;;6192169;23;20374;-93
2023/10/11 10:25:48;;;;;;;8.07;3.23;;;;;;;;;;6193004;23;20371;-92
2023/10/11 10:28:35;;;;;;;15.37;4.57;;;;;;;;;;6171032;23;20455;-92
2023/10/11 10:31:10;;;;;;;8.20;3.87;;;;;;;;;;6200367;23;20649;-92
2023/10/11 10:33:36;;;;;;;15.83;3.53;;;;;;;;;;6197799;23;20484;-91
2023/10/11 10:36:40;;;;;;;12.73;4.17;;;;;;;;;;6207868;23;20405;-91
2023/10/11 10:41:42;;;;;;;6.03;3.47;;;;;;;;;;6256858;23;20461;-91
2023/10/11 10:44:09;;;;;;;10.93;3.93;;;;;;;;;;6213726;23;20378;-91
2023/10/11 10:46:51;;;;;;;9.97;4.30;;;;;;;;;;6209675;23;20401;-92
2023/10/11 10:49:18;;;;;;;9.37;3.60;;;;;;;;;;6208840;23;20410;-91
2023/10/11 10:51:56;;;;;;;8.07;3.60;;;;;;;;;;6208855;23;20444;-92
2023/10/11 10:54:25;;;;;;;8.10;3.67;;;;;;;;;;6254165;22;20960;-91
2023/10/11 10:59:49;;;;;;;10.03;3.93;;;;;;;;;;6277632;22;20492;-91
2023/10/11 11:02:37;;;;;;;7.00;3.37;;;;;;;;;;6262347;22;20381;-91
2023/10/11 11:05:15;;;;;;;6.47;3.80;;;;;;;;;;6262079;22;20952;-91
2023/10/11 11:07:47;;;;;;;5.90;4.00;;;;;;;;;;6266952;22;20417;-91
2023/10/11 11:10:21;;;;;;;10.37;3.47;;;;;;;;;;6263809;22;20357;-90
2023/10/11 11:12:50;;;;;;;9.73;4.93;;;;;;;;;;6238440;22;20434;-91
2023/10/11 11:15:22;;;;;;;10.30;4.40;;;;;;;;;;6235514;22;20393;-91
2023/10/11 11:17:50;;;;;;;10.90;4.10;;;;;;;;;;6240601;22;20396;-91
2023/10/11 11:23:08;;;;;;;11.67;5.30;;;;;;;;;;6178255;23;20387;-91
2023/10/11 11:25:34;;;;;;;9.30;4.30;;;;;;;;;;6168794;23;20410;-91
2023/10/11 11:28:05;;;;;;;7.97;3.30;;;;;;;;;;6171515;23;20499;-91
2023/10/11 11:30:33;;;;;;;9.73;3.93;;;;;;;;;;6168393;23;20383;-92
2023/10/11 11:33:13;;;;;;;8.10;4.83;;;;;;;;;;6170142;23;20381;-91
2023/10/11 11:35:44;;;;;;;6.87;4.30;;;;;;;;;;6170275;23;20377;-92
2023/10/11 11:38:20;;;;;;;7.83;3.20;;;;;;;;;;6174817;23;20488;-92
2023/10/11 11:40:51;;;;;;;8.60;4.27;;;;;;;;;;6171412;23;20371;-92
2023/10/11 11:43:19;;;;;;;8.23;3.53;;;;;;;;;;6172523;23;20481;-91
2023/10/11 11:45:47;;;;;;;6.33;3.80;;;;;;;;;;6174946;23;20844;-91
2023/10/11 11:48:14;;;;;;;6.63;4.17;;;;;;;;;;6175717;23;20467;-91
2023/10/11 11:50:40;;;;;;;5.23;3.50;;;;;;;;;;6175660;23;20410;-93
2023/10/11 11:53:06;;;;;;;7.37;3.70;;;;;;;;;;6200551;23;20376;-93
2023/10/11 11:55:35;;;;;;;10.23;3.93;;;;;;;;;;6112231;23;20396;-93
2023/10/11 11:58:10;;;;;;;8.73;3.57;;;;;;;;;;6093743;23;20374;-92
2023/10/11 12:00:39;;;;;;;6.37;4.00;;;;;;;;;;6131762;23;20374;-92
2023/10/11 12:03:06;;;;;;;9.03;4.13;;;;;;;;;;6147534;23;20376;-93
2023/10/11 12:05:44;;;;;;;11.93;4.40;;;;;;;;;;6144090;23;20379;-92
2023/10/11 12:08:20;;;;;;;7.00;5.17;;;;;;;;;;6152783;23;21001;-91
2023/10/11 12:10:47;;;;;;;7.20;4.20;;;;;;;;;;6149834;23;20458;-92
2023/10/11 12:13:22;;;;;;;7.70;3.97;;;;;;;;;;6143114;23;20360;-92
2023/10/11 12:15:48;;;;;;;6.70;3.33;;;;;;;;;;6143183;23;20418;-92
2023/10/11 12:18:15;;;;;;;5.80;3.63;;;;;;;;;;6145874;23;20456;-92
2023/10/11 12:20:46;;;;;;;4.97;3.47;;;;;;;;;;6170053;23;20864;-91
2023/10/11 12:23:12;;;;;;;11.27;4.27;;;;;;;;;;6150725;23;20376;-91
2023/10/11 12:25:39;;;;;;;7.97;2.80;;;;;;;;;;6157555;22;20745;-91
2023/10/11 12:28:08;;;;;;;4.73;3.50;;;;;;;;;;6241597;22;20479;-92
2023/10/11 12:30:35;;;;;;;11.93;4.03;;;;;;;;;;6235698;22;20390;-91
2023/10/11 12:33:06;;;;;;;7.43;3.40;;;;;;;;;;6234948;22;20796;-92
2023/10/11 12:35:33;;;;;;;5.97;3.70;;;;;;;;;;6262491;22;20415;-91
2023/10/11 12:38:00;;;;;;;6.73;3.30;;;;;;;;;;6238148;22;20392;-91
2023/10/11 12:40:28;;;;;;;5.83;3.50;;;;;;;;;;6209864;22;20391;-91
2023/10/11 12:43:02;;;;;;;3.87;2.60;;;;;;;;;;6235118;22;20385;-92
2023/10/11 12:45:28;;;;;;;6.20;3.90;;;;;;;;;;6257158;22;20454;-91
2023/10/11 12:47:55;;;;;;;6.90;3.30;;;;;;;;;;6233129;22;20428;-90
2023/10/11 12:50:23;;;;;;;4.73;3.10;;;;;;;;;;6261182;22;20370;-93
2023/10/11 12:52:52;;;;;;;8.60;3.70;;;;;;;;;;6259336;22;20357;-92
2023/10/11 12:55:20;;;;;;;6.90;3.77;;;;;;;;;;6258112;22;20378;-90
2023/10/11 12:57:52;;;;;;;5.33;3.10;;;;;;;;;;6233691;22;20365;-91
2023/10/11 13:00:37;;;;;;;6.77;3.50;;;;;;;;;;6283356;22;20441;-90
2023/10/11 13:06:10;;;;;;;5.20;3.00;;;;;;;;;;6175851;23;20376;-91
2023/10/11 13:08:39;;;;;;;6.17;2.90;;;;;;;;;;6248483;22;20452;-92
2023/10/11 13:11:10;;;;;;;4.30;3.07;;;;;;;;;;6235079;22;20393;-91
2023/10/11 13:13:37;;;;;;;5.77;3.60;;;;;;;;;;6238555;22;20396;-90
2023/10/11 13:16:26;;;;;;;8.10;3.00;;;;;;;;;;6261144;22;20370;-91
2023/10/11 13:18:52;;;;;;;5.17;3.00;;;;;;;;;;6236958;22;20369;-91
2023/10/11 13:21:25;;;;;;;4.43;2.80;;;;;;;;;;6234710;22;20389;-91
2023/10/11 13:23:51;;;;;;;3.87;2.20;;;;;;;;;;6237558;22;20361;-91
2023/10/11 13:26:18;;;;;;;5.57;3.40;;;;;;;;;;6230403;22;20404;-91
2023/10/11 13:28:48;;;;;;;6.40;3.70;;;;;;;;;;6233670;22;20178;-91
2023/10/11 13:31:17;;;;;;;7.43;3.10;;;;;;;;;;6232422;22;20468;-91
2023/10/11 13:33:43;;;;;;;8.83;3.43;;;;;;;;;;6239026;22;20369;-91
2023/10/11 13:36:12;;;;;;;5.83;2.13;;;;;;;;;;6229416;22;20373;-92
2023/10/11 13:38:41;;;;;;;7.50;3.40;;;;;;;;;;6233038;22;20519;-90
2023/10/11 13:41:12;;;;;;;11.80;3.70;;;;;;;;;;6232091;22;20389;-90
2023/10/11 13:43:38;;;;;;;5.60;3.03;;;;;;;;;;6232435;23;20414;-90
2023/10/11 13:46:07;;;;;;;7.90;2.80;;;;;;;;;;6228100;23;20390;-90
2023/10/11 13:48:43;;;;;;;5.27;2.47;;;;;;;;;;6228154;23;20447;-90
2023/10/11 13:51:16;;;;;;;7.40;3.60;;;;;;;;;;6230827;23;20366;-91
2023/10/11 13:53:43;;;;;;;7.60;3.57;;;;;;;;;;6231234;23;20374;-91
2023/10/11 13:56:31;;;;;;;6.20;2.23;;;;;;;;;;6198045;23;20382;-92
2023/10/11 13:58:57;;;;;;;4.97;2.70;;;;;;;;;;6179081;23;20791;-91
2023/10/11 14:01:59;;;;;;;5.63;3.20;;;;;;;;;;6201395;23;20450;-92
2023/10/11 14:07:25;;;;;;;6.40;2.80;;;;;;;;;;6202344;22;20402;-91
2023/10/11 14:09:53;;;;;;;3.37;2.00;;;;;;;;;;6159207;23;20379;-91
2023/10/11 14:12:21;;;;;;;7.37;3.67;;;;;;;;;;6169830;23;20797;-91
2023/10/11 14:14:47;;;;;;;6.40;3.30;;;;;;;;;;6172730;23;20379;-91
2023/10/11 14:17:15;;;;;;;10.87;2.43;;;;;;;;;;6195110;23;20379;-92
2023/10/11 14:19:42;;;;;;;5.43;2.90;;;;;;;;;;6197184;23;20392;-92
2023/10/11 14:22:08;;;;;;;6.57;3.20;;;;;;;;;;6195355;23;21204;-92
2023/10/11 14:24:35;;;;;;;5.83;2.83;;;;;;;;;;6193983;23;20379;-92
2023/10/11 14:27:05;;;;;;;5.20;3.53;;;;;;;;;;6209480;23;20483;-90
2023/10/11 14:29:30;;;;;;;7.07;3.43;;;;;;;;;;6235614;23;20379;-91
2023/10/11 14:31:57;;;;;;;5.90;2.87;;;;;;;;;;6229397;23;20432;-92
2023/10/11 14:34:23;;;;;;;6.40;3.33;;;;;;;;;;6228704;23;20830;-92
2023/10/11 14:36:50;;;;;;;3.90;2.67;;;;;;;;;;6230333;23;20386;-92
2023/10/11 14:39:19;;;;;;;10.03;2.70;;;;;;;;;;6237139;22;20378;-90
2023/10/11 14:41:46;;;;;;;7.00;3.53;;;;;;;;;;6228380;23;20863;-90
2023/10/11 14:44:13;;;;;;;5.00;2.80;;;;;;;;;;6228685;23;20448;-91
2023/10/11 14:46:41;;;;;;;6.13;2.60;;;;;;;;;;6226833;23;20469;-90
2023/10/11 14:49:14;;;;;;;6.43;3.30;;;;;;;;;;6232917;23;20426;-91
2023/10/11 14:51:41;;;;;;;7.00;3.77;;;;;;;;;;6230169;23;20407;-93
2023/10/11 14:54:10;;;;;;;6.03;2.83;;;;;;;;;;6233399;23;20442;-92
2023/10/11 14:56:38;;;;;;;10.00;4.73;;;;;;;;;;6229843;23;20398;-89
2023/10/11 14:59:12;;;;;;;13.40;3.70;;;;;;;;;;6230387;23;20755;-89
2023/10/11 15:01:38;;;;;;;7.40;2.70;;;;;;;;;;6230481;23;20425;-91
2023/10/11 15:04:09;;;;;;;4.13;2.60;;;;;;;;;;6227094;23;20438;-92
2023/10/11 15:06:39;;;;;;;8.80;3.50;;;;;;;;;;6227291;23;20370;-92
2023/10/11 15:09:09;;;;;;;5.13;3.17;;;;;;;;;;6226631;23;20378;-91
2023/10/11 15:11:35;;;;;;;3.83;3.20;;;;;;;;;;6235904;22;20413;-90
2023/10/11 15:14:07;;;;;;;5.33;3.93;;;;;;;;;;6228712;23;20440;-91
2023/10/11 15:16:36;;;;;;;5.90;3.97;;;;;;;;;;6248478;23;20370;-90
2023/10/11 15:19:12;;;;;;;6.70;4.27;;;;;;;;;;6228977;23;20377;-91
2023/10/11 15:21:41;;;;;;;5.50;3.83;;;;;;;;;;6228074;23;20844;-92
2023/10/11 15:24:13;;;;;;;4.93;3.37;;;;;;;;;;6230393;23;20375;-91
2023/10/11 15:26:53;;;;;;;4.30;3.07;;;;;;;;;;6227817;23;20400;-91
2023/10/11 15:29:55;;;;;;;7.17;3.67;;;;;;;;;;6229703;23;20833;-91
2023/10/11 15:32:23;;;;;;;4.30;2.80;;;;;;;;;;6134230;23;20438;-92
2023/10/11 15:34:50;;;;;;;4.83;3.20;;;;;;;;;;6116532;23;20385;-90
2023/10/11 15:37:17;;;;;;;4.43;2.80;;;;;;;;;;6135618;23;20487;-91
2023/10/11 15:39:43;;;;;;;5.70;3.30;;;;;;;;;;6114522;23;20404;-92
2023/10/11 15:42:09;;;;;;;5.47;3.07;;;;;;;;;;6112620;23;20419;-92
2023/10/11 15:44:42;;;;;;;8.60;5.00;;;;;;;;;;6119270;23;20381;-91
2023/10/11 15:47:08;;;;;;;8.33;5.20;;;;;;;;;;6135539;23;20967;-91
2023/10/11 15:49:39;;;;;;;8.00;3.67;;;;;;;;;;6116654;23;20874;-91